createdAt,value
2019-05-04T00:00:55.592Z,99.77
2019-05-04T00:03:25.987Z,97.92
2019-05-04T00:05:59.831Z,96.55
2019-05-04T00:08:29.819Z,96.15
2019-05-04T00:11:00.010Z,95.65
2019-05-04T00:13:30.209Z,96.25
2019-05-04T00:16:00.179Z,100.00
2019-05-04T00:18:30.355Z,100.00
2019-05-04T00:21:00.259Z,100.00
2019-05-04T00:23:30.304Z,99.56
2019-05-04T00:26:00.267Z,98.75
2019-05-04T00:28:30.164Z,97.71
2019-05-04T00:31:00.068Z,97.52
2019-05-04T00:33:39.046Z,97.42
2019-05-04T00:36:12.654Z,98.72
2019-05-04T00:38:42.572Z,99.92
2019-05-04T00:41:12.475Z,100.00
2019-05-04T00:43:42.398Z,100.00
2019-05-04T00:46:12.325Z,100.00
2019-05-04T00:48:42.255Z,100.00
2019-05-04T00:51:14.286Z,100.00
2019-05-04T00:53:45.471Z,100.00
2019-05-04T00:56:17.458Z,100.00
2019-05-04T00:58:52.559Z,100.00
2019-05-04T01:01:35.815Z,100.00
2019-05-04T01:04:05.827Z,100.00
2019-05-04T01:06:35.710Z,100.00
2019-05-04T01:09:07.717Z,100.00
2019-05-04T01:11:37.609Z,100.00
2019-05-04T01:14:07.617Z,100.00
2019-05-04T01:16:38.020Z,100.00
2019-05-04T01:19:08.130Z,100.00
2019-05-04T01:21:38.021Z,100.00
2019-05-04T01:24:08.090Z,100.00
2019-05-04T01:26:38.224Z,100.00
2019-05-04T01:29:08.621Z,100.00
2019-05-04T01:31:38.571Z,100.00
2019-05-04T01:34:15.291Z,100.00
2019-05-04T01:37:05.169Z,100.00
2019-05-04T01:39:44.774Z,100.00
2019-05-04T01:42:15.431Z,100.00
2019-05-04T01:44:45.451Z,100.00
2019-05-04T01:47:15.562Z,100.00
2019-05-04T01:49:46.277Z,100.00
2019-05-04T01:52:17.129Z,100.00
2019-05-04T01:54:47.163Z,100.00
2019-05-04T01:57:26.249Z,100.00
2019-05-04T01:59:56.606Z,100.00
2019-05-04T02:02:28.278Z,100.00
2019-05-04T02:04:58.501Z,100.00
2019-05-04T02:07:28.609Z,100.00
2019-05-04T02:09:58.621Z,100.00
2019-05-04T02:12:28.766Z,100.00
2019-05-04T02:14:58.822Z,100.00
2019-05-04T02:17:29.326Z,100.00
2019-05-04T02:19:59.307Z,100.00
2019-05-04T02:22:35.060Z,100.00
2019-05-04T02:25:15.059Z,100.00
2019-05-04T02:28:14.578Z,100.00
2019-05-04T02:30:49.901Z,100.00
2019-05-04T02:33:19.844Z,100.00
2019-05-04T02:35:49.826Z,100.00
2019-05-04T02:38:19.850Z,100.00
2019-05-04T02:41:32.254Z,100.00
2019-05-04T02:44:05.763Z,100.00
2019-05-04T02:46:36.094Z,100.00
2019-05-04T02:49:26.494Z,100.00
2019-05-04T02:51:57.814Z,100.00
2019-05-04T02:54:27.892Z,100.00
2019-05-04T02:56:58.113Z,100.00
2019-05-04T02:59:28.092Z,100.00
2019-05-04T03:01:58.184Z,100.00
2019-05-04T03:04:28.150Z,100.00
2019-05-04T03:06:58.502Z,100.00
2019-05-04T03:09:28.449Z,100.00
2019-05-04T03:11:58.774Z,100.00
2019-05-04T03:14:32.418Z,100.00
2019-05-04T03:17:02.768Z,100.00
2019-05-04T03:20:06.286Z,100.00
2019-05-04T03:22:57.022Z,100.00
2019-05-04T03:25:26.984Z,100.00
2019-05-04T03:27:56.949Z,100.00
2019-05-04T03:30:33.244Z,100.00
2019-05-04T03:33:08.068Z,100.00
2019-05-04T03:35:50.072Z,100.00
2019-05-04T03:38:07.389Z,100.00
2019-05-04T03:40:37.393Z,100.00
2019-05-04T03:43:09.701Z,100.00
2019-05-04T03:45:59.091Z,100.00
2019-05-04T03:48:46.731Z,100.00
2019-05-04T03:51:22.281Z,100.00
2019-05-04T03:53:55.223Z,100.00
2019-05-04T03:56:25.485Z,100.00
2019-05-04T03:58:56.412Z,100.00
2019-05-04T04:01:26.795Z,100.00
2019-05-04T04:03:56.749Z,100.00
2019-05-04T04:06:26.873Z,100.00
2019-05-04T04:09:09.400Z,100.00
2019-05-04T04:11:28.583Z,100.00
2019-05-04T04:13:58.527Z,100.00
2019-05-04T04:16:45.378Z,100.00
2019-05-04T04:19:15.548Z,100.00
2019-05-04T04:21:45.575Z,100.00
2019-05-04T04:24:15.489Z,100.00
2019-05-04T04:27:08.933Z,100.00
2019-05-04T04:29:41.516Z,100.00
2019-05-04T04:32:11.464Z,100.00
2019-05-04T04:34:41.686Z,100.00
2019-05-04T04:37:11.669Z,100.00
2019-05-04T04:39:41.619Z,100.00
2019-05-04T04:42:11.536Z,100.00
2019-05-04T04:44:41.607Z,100.00
2019-05-04T04:47:11.684Z,100.00
2019-05-04T04:49:41.706Z,100.00
2019-05-04T04:52:11.641Z,100.00
2019-05-04T04:54:41.635Z,100.00
2019-05-04T04:57:18.283Z,100.00
2019-05-04T05:00:07.123Z,100.00
2019-05-04T05:02:43.327Z,100.00
2019-05-04T05:05:09.108Z,99.79
2019-05-04T05:07:39.151Z,97.42
2019-05-04T05:10:09.152Z,90.96
2019-05-04T05:12:39.294Z,88.85
2019-05-04T05:15:09.389Z,87.34
2019-05-04T05:17:39.356Z,89.02
2019-05-04T05:20:29.103Z,86.30
2019-05-04T05:22:59.299Z,85.68
2019-05-04T05:25:29.288Z,86.02
2019-05-04T05:27:59.241Z,86.03
2019-05-04T05:30:29.209Z,86.15
2019-05-04T05:33:09.782Z,86.10
2019-05-04T05:35:44.420Z,85.77
2019-05-04T05:38:14.425Z,86.31
2019-05-04T05:40:45.396Z,88.05
2019-05-04T05:43:19.017Z,88.34
2019-05-04T05:45:58.825Z,87.71
2019-05-04T05:48:34.816Z,87.52
2019-05-04T05:51:17.354Z,87.67
2019-05-04T05:54:00.361Z,85.83
2019-05-04T05:56:39.967Z,86.46
2019-05-04T05:59:28.009Z,86.61
2019-05-04T06:02:25.395Z,86.70
2019-05-04T06:05:32.629Z,86.26
2019-05-04T06:08:09.768Z,86.11
2019-05-04T06:10:40.379Z,87.24
2019-05-04T06:13:29.131Z,86.12
2019-05-04T06:16:18.817Z,85.46
2019-05-04T06:18:55.585Z,85.69
2019-05-04T06:21:41.903Z,86.24
2019-05-04T06:24:29.960Z,85.12
2019-05-04T06:27:09.704Z,84.95
2019-05-04T06:29:49.566Z,85.57
2019-05-04T06:32:28.389Z,84.41
2019-05-04T06:35:24.375Z,83.56
2019-05-04T06:38:11.851Z,83.82
2019-05-04T06:40:52.423Z,84.44
2019-05-04T06:43:51.967Z,83.10
2019-05-04T06:46:11.207Z,82.52
2019-05-04T06:48:41.326Z,81.71
2019-05-04T06:51:17.982Z,82.78
2019-05-04T06:53:56.141Z,82.29
2019-05-04T06:56:38.937Z,82.35
2019-05-04T06:59:07.118Z,82.32
2019-05-04T07:01:37.113Z,82.57
2019-05-04T07:04:07.147Z,84.29
2019-05-04T07:06:39.299Z,84.79
2019-05-04T07:09:09.804Z,86.17
2019-05-04T07:12:04.091Z,86.02
2019-05-04T07:14:11.782Z,88.83
2019-05-04T07:16:41.870Z,89.27
2019-05-04T07:19:18.989Z,91.35
2019-05-04T07:21:44.816Z,92.90
2019-05-04T07:24:15.445Z,95.45
2019-05-04T07:26:45.348Z,95.58
2019-05-04T07:29:18.944Z,97.33
2019-05-04T07:31:58.029Z,96.46
2019-05-04T07:34:26.521Z,96.54
2019-05-04T07:37:45.880Z,94.67
2019-05-04T07:40:10.247Z,93.99
2019-05-04T07:42:51.640Z,93.83
2019-05-04T07:45:20.239Z,95.65
2019-05-04T07:47:50.744Z,93.87
2019-05-04T07:50:20.871Z,93.79
2019-05-04T07:52:50.829Z,92.24
2019-05-04T07:55:20.893Z,92.35
2019-05-04T07:57:50.812Z,90.13
2019-05-04T08:00:21.189Z,89.47
2019-05-04T08:02:51.138Z,89.25
2019-05-04T08:05:26.511Z,89.79
2019-05-04T08:07:55.012Z,92.95
2019-05-04T08:10:29.942Z,96.42
2019-05-04T08:13:04.116Z,97.01
2019-05-04T08:15:29.642Z,100.00
2019-05-04T08:18:03.305Z,100.00
2019-05-04T08:20:32.291Z,100.00
2019-05-04T08:23:02.288Z,100.00
2019-05-04T08:25:34.287Z,100.00
2019-05-04T08:28:05.013Z,100.00
2019-05-04T08:30:40.193Z,100.00
2019-05-04T08:33:07.661Z,100.00
2019-05-04T08:35:37.782Z,100.00
2019-05-04T08:38:11.322Z,100.00
2019-05-04T08:40:39.658Z,100.00
2019-05-04T08:43:14.083Z,100.00
2019-05-04T08:45:44.489Z,100.00
2019-05-04T08:48:15.039Z,100.00
2019-05-04T08:51:15.210Z,100.00
2019-05-04T08:53:51.588Z,100.00
2019-05-04T08:56:28.487Z,100.00
2019-05-04T08:59:04.825Z,100.00
2019-05-04T09:01:53.679Z,100.00
2019-05-04T09:04:25.169Z,100.00
2019-05-04T09:07:01.830Z,100.00
2019-05-04T09:09:25.546Z,100.00
2019-05-04T09:11:54.237Z,100.00
2019-05-04T09:14:32.914Z,100.00
2019-05-04T09:16:55.893Z,100.00
2019-05-04T09:19:25.851Z,100.00
2019-05-04T09:22:14.012Z,100.00
2019-05-04T09:24:27.655Z,100.00
2019-05-04T09:26:58.163Z,100.00
2019-05-04T09:29:31.126Z,100.00
2019-05-04T09:31:59.958Z,100.00
2019-05-04T09:34:32.209Z,100.00
2019-05-04T09:37:01.699Z,100.00
2019-05-04T09:39:31.603Z,100.00
2019-05-04T09:42:08.106Z,100.00
2019-05-04T09:44:41.026Z,100.00
2019-05-04T09:47:09.864Z,100.00
2019-05-04T09:49:39.771Z,100.00
2019-05-04T09:52:16.345Z,100.00
2019-05-04T09:54:49.991Z,100.00
2019-05-04T09:57:17.918Z,100.00
2019-05-04T09:59:55.213Z,100.00
2019-05-04T10:02:19.753Z,100.00
2019-05-04T10:04:49.816Z,100.00
2019-05-04T10:07:20.037Z,100.00
2019-05-04T10:09:50.098Z,100.00
2019-05-04T10:12:25.635Z,100.00
2019-05-04T10:15:12.551Z,100.00
2019-05-04T10:17:57.393Z,100.00
2019-05-04T10:20:27.482Z,100.00
2019-05-04T10:22:57.649Z,100.00
2019-05-04T10:25:27.845Z,100.00
2019-05-04T10:27:58.010Z,100.00
2019-05-04T10:30:27.998Z,100.00
2019-05-04T10:32:58.012Z,100.00
2019-05-04T10:35:27.966Z,100.00
2019-05-04T10:37:58.026Z,100.00
2019-05-04T10:40:28.241Z,100.00
2019-05-04T10:43:02.264Z,100.00
2019-05-04T10:45:29.979Z,100.00
2019-05-04T10:47:59.941Z,100.00
2019-05-04T10:50:29.856Z,100.00
2019-05-04T10:53:00.058Z,100.00
2019-05-04T10:55:30.074Z,100.00
2019-05-04T10:58:00.031Z,100.00
2019-05-04T11:00:30.027Z,100.00
2019-05-04T11:02:59.985Z,100.00
2019-05-04T11:05:29.917Z,100.00
2019-05-04T11:08:00.037Z,100.00
2019-05-04T11:10:30.037Z,100.00
2019-05-04T11:13:13.336Z,100.00
2019-05-04T11:15:31.780Z,100.00
2019-05-04T11:18:01.825Z,100.00
2019-05-04T11:20:31.819Z,100.00
2019-05-04T11:23:01.879Z,100.00
2019-05-04T11:25:41.752Z,100.00
2019-05-04T11:28:19.636Z,100.00
2019-05-04T11:30:49.560Z,100.00
2019-05-04T11:33:19.598Z,100.00
2019-05-04T11:35:49.587Z,100.00
2019-05-04T11:38:20.002Z,100.00
2019-05-04T11:40:49.977Z,100.00
2019-05-04T11:43:29.523Z,100.00
2019-05-04T11:45:51.704Z,100.00
2019-05-04T11:48:21.713Z,100.00
2019-05-04T11:50:51.724Z,100.00
2019-05-04T11:53:21.745Z,100.00
2019-05-04T11:55:51.871Z,100.00
2019-05-04T11:58:24.080Z,100.00
2019-05-04T12:00:54.506Z,100.00
2019-05-04T12:03:25.454Z,100.00
2019-05-04T12:06:03.033Z,100.00
2019-05-04T12:08:55.612Z,100.00
2019-05-04T12:11:25.849Z,100.00
2019-05-04T12:13:56.469Z,100.00
2019-05-04T12:16:26.575Z,100.00
2019-05-04T12:18:56.513Z,100.00
2019-05-04T12:21:26.423Z,100.00
2019-05-04T12:23:56.862Z,100.00
2019-05-04T12:26:26.827Z,100.00
2019-05-04T12:28:56.791Z,100.00
2019-05-04T12:31:26.695Z,100.00
2019-05-04T12:33:56.702Z,100.00
2019-05-04T12:36:26.683Z,100.00
2019-05-04T12:38:56.629Z,100.00
2019-05-04T12:41:26.542Z,100.00
2019-05-04T12:43:59.953Z,100.00
2019-05-04T12:46:28.251Z,100.00
2019-05-04T12:48:58.227Z,100.00
2019-05-04T12:51:28.451Z,100.00
2019-05-04T12:53:58.528Z,100.00
2019-05-04T12:56:28.380Z,100.00
2019-05-04T12:58:58.422Z,100.00
2019-05-04T13:01:28.814Z,100.00
2019-05-04T13:03:58.779Z,100.00
2019-05-04T13:06:28.851Z,100.00
2019-05-04T13:08:58.785Z,100.00
2019-05-04T13:11:29.237Z,100.00
2019-05-04T13:14:12.091Z,100.00
2019-05-04T13:16:30.900Z,100.00
2019-05-04T13:19:08.391Z,100.00
2019-05-04T13:21:38.478Z,100.00
2019-05-04T13:24:08.668Z,100.00
2019-05-04T13:26:38.697Z,100.00
2019-05-04T13:29:08.976Z,100.00
2019-05-04T13:31:39.330Z,100.00
2019-05-04T13:34:09.363Z,100.00
2019-05-04T13:36:39.541Z,100.00
2019-05-04T13:39:09.830Z,100.00
2019-05-04T13:41:39.806Z,100.00
2019-05-04T13:44:09.761Z,100.00
2019-05-04T13:46:39.689Z,100.00
2019-05-04T13:49:09.675Z,100.00
2019-05-04T13:51:39.606Z,100.00
2019-05-04T13:54:15.112Z,100.00
2019-05-04T13:57:09.935Z,100.00
2019-05-04T13:59:58.204Z,100.00
2019-05-04T14:02:41.679Z,100.00
2019-05-04T14:05:14.184Z,100.00
2019-05-04T14:07:45.545Z,100.00
2019-05-04T14:10:15.722Z,100.00
2019-05-04T14:12:46.157Z,100.00
2019-05-04T14:15:28.626Z,100.00
2019-05-04T14:17:48.094Z,100.00
2019-05-04T14:20:18.264Z,100.00
2019-05-04T14:22:48.168Z,100.00
2019-05-04T14:25:18.117Z,100.00
2019-05-04T14:27:48.034Z,100.00
2019-05-04T14:30:21.622Z,100.00
2019-05-04T14:32:51.624Z,100.00
2019-05-04T14:35:21.667Z,100.00
2019-05-04T14:37:51.641Z,100.00
2019-05-04T14:40:21.694Z,100.00
2019-05-04T14:42:53.298Z,100.00
2019-05-04T14:45:31.967Z,100.00
2019-05-04T14:48:19.363Z,100.00
2019-05-04T14:50:49.571Z,100.00
2019-05-04T14:53:20.455Z,100.00
2019-05-04T14:55:50.653Z,100.00
2019-05-04T14:58:20.721Z,100.00
2019-05-04T15:00:50.649Z,100.00
2019-05-04T15:03:20.557Z,100.00
2019-05-04T15:05:50.497Z,100.00
2019-05-04T15:08:20.480Z,100.00
2019-05-04T15:10:50.556Z,100.00
2019-05-04T15:13:20.540Z,100.00
2019-05-04T15:15:50.484Z,100.00
2019-05-04T15:18:22.286Z,100.00
2019-05-04T15:21:04.547Z,100.00
2019-05-04T15:23:35.388Z,100.00
2019-05-04T15:26:05.397Z,100.00
2019-05-04T15:28:35.357Z,100.00
2019-05-04T15:31:05.501Z,100.00
2019-05-04T15:33:35.513Z,100.00
2019-05-04T15:36:05.619Z,100.00
2019-05-04T15:38:35.538Z,100.00
2019-05-04T15:41:05.634Z,100.00
2019-05-04T15:43:35.619Z,100.00
2019-05-04T15:46:05.938Z,100.00
2019-05-04T15:48:35.867Z,100.00
2019-05-04T15:51:11.654Z,100.00
2019-05-04T15:54:07.459Z,100.00
2019-05-04T15:56:41.505Z,100.00
2019-05-04T15:59:15.283Z,100.00
2019-05-04T16:01:45.276Z,100.00
2019-05-04T16:04:15.266Z,100.00
2019-05-04T16:06:45.393Z,100.00
2019-05-04T16:09:15.935Z,100.00
2019-05-04T16:11:46.155Z,100.00
2019-05-04T16:14:16.090Z,100.00
2019-05-04T16:16:46.117Z,100.00
2019-05-04T16:19:16.061Z,100.00
2019-05-04T16:21:46.015Z,100.00
2019-05-04T16:24:16.675Z,100.00
2019-05-04T16:26:46.734Z,100.00
2019-05-04T16:29:17.270Z,100.00
2019-05-04T16:31:47.267Z,100.00
2019-05-04T16:34:17.273Z,100.00
2019-05-04T16:36:47.443Z,100.00
2019-05-04T16:39:17.350Z,99.53
2019-05-04T16:41:47.656Z,98.07
2019-05-04T16:44:17.575Z,98.37
2019-05-04T16:46:48.292Z,97.77
2019-05-04T16:49:18.231Z,100.00
2019-05-04T16:51:57.330Z,100.00
2019-05-04T16:54:27.529Z,100.00
2019-05-04T16:56:59.232Z,100.00
2019-05-04T16:59:29.307Z,100.00
2019-05-04T17:02:27.175Z,100.00
2019-05-04T17:05:02.580Z,100.00
2019-05-04T17:07:32.733Z,100.00
2019-05-04T17:10:03.049Z,100.00
2019-05-04T17:12:34.330Z,100.00
2019-05-04T17:15:04.737Z,100.00
2019-05-04T17:17:35.018Z,100.00
2019-05-04T17:20:05.955Z,100.00
2019-05-04T17:22:38.029Z,100.00
2019-05-04T17:25:15.435Z,100.00
2019-05-04T17:27:58.393Z,100.00
2019-05-04T17:30:34.883Z,100.00
2019-05-04T17:33:05.164Z,100.00
2019-05-04T17:35:36.164Z,100.00
2019-05-04T17:38:06.579Z,100.00
2019-05-04T17:40:42.606Z,100.00
2019-05-04T17:43:24.413Z,100.00
2019-05-04T17:45:54.518Z,100.00
2019-05-04T17:48:24.623Z,100.00
2019-05-04T17:50:56.575Z,100.00
2019-05-04T17:53:26.660Z,100.00
2019-05-04T17:55:56.575Z,100.00
2019-05-04T17:58:26.544Z,100.00
2019-05-04T18:01:15.419Z,99.21
2019-05-04T18:03:46.734Z,100.00
2019-05-04T18:06:16.803Z,100.00
2019-05-04T18:08:46.824Z,100.00
2019-05-04T18:11:24.944Z,100.00
2019-05-04T18:14:04.728Z,100.00
2019-05-04T18:16:41.123Z,100.00
2019-05-04T18:19:11.174Z,100.00
2019-05-04T18:21:41.157Z,100.00
2019-05-04T18:24:11.106Z,100.00
2019-05-04T18:26:41.020Z,100.00
2019-05-04T18:29:10.962Z,100.00
2019-05-04T18:31:40.869Z,100.00
2019-05-04T18:34:10.904Z,100.00
2019-05-04T18:36:40.879Z,100.00
2019-05-04T18:39:14.774Z,100.00
2019-05-04T18:41:48.961Z,100.00
2019-05-04T18:44:26.985Z,100.00
2019-05-04T18:47:18.183Z,100.00
2019-05-04T18:49:48.368Z,100.00
2019-05-04T18:52:18.420Z,100.00
2019-05-04T18:54:48.406Z,100.00
2019-05-04T18:57:18.383Z,100.00
2019-05-04T18:59:48.828Z,100.00
2019-05-04T19:02:18.794Z,100.00
2019-05-04T19:04:48.817Z,100.00
2019-05-04T19:07:59.984Z,100.00
2019-05-04T19:10:23.913Z,100.00
2019-05-04T19:12:54.399Z,100.00
2019-05-04T19:15:25.286Z,100.00
2019-05-04T19:17:55.528Z,100.00
2019-05-04T19:20:25.756Z,100.00
2019-05-04T19:22:56.872Z,100.00
2019-05-04T19:25:27.592Z,100.00
2019-05-04T19:27:57.530Z,100.00
2019-05-04T19:30:27.787Z,100.00
2019-05-04T19:32:57.718Z,100.00
2019-05-04T19:35:27.925Z,100.00
2019-05-04T19:37:57.837Z,100.00
2019-05-04T19:40:38.425Z,100.00
2019-05-04T19:43:15.283Z,100.00
2019-05-04T19:46:07.587Z,100.00
2019-05-04T19:48:38.545Z,100.00
2019-05-04T19:51:08.645Z,100.00
2019-05-04T19:53:38.631Z,100.00
2019-05-04T19:56:09.138Z,100.00
2019-05-04T19:58:39.225Z,100.00
2019-05-04T20:01:09.905Z,100.00
2019-05-04T20:03:39.981Z,100.00
2019-05-04T20:06:10.078Z,100.00
2019-05-04T20:08:59.154Z,100.00
2019-05-04T20:11:36.822Z,100.00
2019-05-04T20:14:06.944Z,100.00
2019-05-04T20:16:37.092Z,100.00
2019-05-04T20:19:07.363Z,100.00
2019-05-04T20:21:37.321Z,100.00
2019-05-04T20:24:07.252Z,100.00
2019-05-04T20:26:37.266Z,100.00
2019-05-04T20:29:07.677Z,100.00
2019-05-04T20:31:37.696Z,100.00
2019-05-04T20:34:07.618Z,100.00
2019-05-04T20:36:37.572Z,100.00
2019-05-04T20:39:08.205Z,100.00
2019-05-04T20:41:38.164Z,100.00
2019-05-04T20:44:20.399Z,100.00
2019-05-04T20:47:08.678Z,100.00
2019-05-04T20:49:40.627Z,100.00
2019-05-04T20:52:10.920Z,100.00
2019-05-04T20:54:40.921Z,100.00
2019-05-04T20:57:11.037Z,100.00
2019-05-04T20:59:40.963Z,100.00
2019-05-04T21:02:15.947Z,100.00
2019-05-04T21:05:01.522Z,100.00
2019-05-04T21:07:31.582Z,100.00
2019-05-04T21:10:01.545Z,100.00
2019-05-04T21:12:31.596Z,100.00
2019-05-04T21:15:01.657Z,100.00
2019-05-04T21:18:00.860Z,100.00
2019-05-04T21:20:44.757Z,100.00
2019-05-04T21:23:14.895Z,100.00
2019-05-04T21:25:44.926Z,100.00
2019-05-04T21:28:14.992Z,100.00
2019-05-04T21:30:44.969Z,100.00
2019-05-04T21:33:16.062Z,100.00
2019-05-04T21:35:46.054Z,100.00
2019-05-04T21:38:16.026Z,100.00
2019-05-04T21:40:45.968Z,100.00
2019-05-04T21:43:15.889Z,100.00
2019-05-04T21:46:16.916Z,100.00
2019-05-04T21:49:01.063Z,100.00
2019-05-04T21:51:31.186Z,100.00
2019-05-04T21:54:01.832Z,100.00
2019-05-04T21:56:31.906Z,100.00
2019-05-04T21:59:03.723Z,100.00
2019-05-04T22:01:44.421Z,100.00
2019-05-04T22:04:17.015Z,100.00
2019-05-04T22:06:47.129Z,100.00
2019-05-04T22:09:17.841Z,100.00
2019-05-04T22:11:47.810Z,100.00
2019-05-04T22:14:17.786Z,100.00
2019-05-04T22:16:47.737Z,100.00
2019-05-04T22:19:17.965Z,100.00
2019-05-04T22:21:48.069Z,100.00
2019-05-04T22:24:18.180Z,100.00
2019-05-04T22:26:48.230Z,100.00
2019-05-04T22:29:18.140Z,100.00
2019-05-04T22:31:48.233Z,100.00
2019-05-04T22:34:18.293Z,100.00
2019-05-04T22:36:57.865Z,100.00
2019-05-04T22:39:27.809Z,100.00
2019-05-04T22:41:58.595Z,100.00
2019-05-04T22:44:28.581Z,100.00
2019-05-04T22:46:58.548Z,100.00
2019-05-04T22:49:28.855Z,100.00
2019-05-04T22:52:11.670Z,100.00
2019-05-04T22:54:49.383Z,100.00
2019-05-04T22:57:28.121Z,100.00
2019-05-04T23:00:04.759Z,100.00
2019-05-04T23:02:38.442Z,100.00
2019-05-04T23:05:08.970Z,100.00
2019-05-04T23:07:38.896Z,100.00
2019-05-04T23:10:09.249Z,100.00
2019-05-04T23:12:39.621Z,100.00
2019-05-04T23:15:09.717Z,100.00
2019-05-04T23:17:39.674Z,100.00
2019-05-04T23:20:10.189Z,100.00
2019-05-04T23:23:11.004Z,100.00
2019-05-04T23:25:41.239Z,100.00
2019-05-04T23:28:11.376Z,100.00
2019-05-04T23:30:41.406Z,100.00
2019-05-04T23:33:11.384Z,100.00
2019-05-04T23:35:41.627Z,100.00
2019-05-04T23:38:11.657Z,100.00
2019-05-04T23:40:41.725Z,100.00
2019-05-04T23:43:11.823Z,100.00
2019-05-04T23:45:41.822Z,100.00
2019-05-04T23:48:19.307Z,100.00
2019-05-04T23:50:49.631Z,100.00
2019-05-04T23:53:19.687Z,100.00
2019-05-04T23:55:49.779Z,100.00
2019-05-04T23:58:41.712Z,100.00
